Inicio METAR Ruta Wind Satelite

Informe Meteorológico

Fecha: 2024/06/18 19:32:33 Local
2024.06.19 00:32 UTC


Operación:VFR
SKMU 190000Z NIL =

SKMU 182200Z 19006KT 9999 SCT020 27/25 Q1006
SKMU 182100Z 19006KT 8000 SCT020 27/25 Q1007 RERA
SKMU 181900Z 19006KT 5000 DZ SCT020 29/24 Q1007
SKMU 181800Z 19003KT 9999 SCT020 32/22 Q1009
SKMU 181700Z 19003KT 9999 SCT020 31/21 Q1010